Time;durP1;ratioP1;P1;durP2;ratioP2;P2;SDS_P1;SDS_P2;PMS_P1;PMS_P2;Temp;Humidity;BMP_temperature;BMP_pressure;BME280_temperature;BME280_humidity;BME280_pressure;Samples;Min_cycle;Max_cycle;Signal;HPM_P1;HPM_P2
2021/12/29 00:00:21;;;;;;;128.97;43.03;;;;;;;6.35;100.00;94071.97;5081915;28;20210;-76
2021/12/29 00:02:52;;;;;;;99.27;40.03;;;;;;;6.28;100.00;94079.75;5089306;28;20233;-77
2021/12/29 00:05:20;;;;;;;93.13;38.33;;;;;;;6.29;100.00;94072.81;5089637;28;20198;-74
2021/12/29 00:07:51;;;;;;;134.53;43.60;;;;;;;6.21;100.00;94060.13;5089441;28;20646;-75
2021/12/29 00:10:19;;;;;;;89.50;39.13;;;;;;;6.36;100.00;94080.50;5089562;28;20234;-76
2021/12/29 00:12:51;;;;;;;89.40;39.87;;;;;;;6.30;100.00;94069.22;5088953;28;20227;-74
2021/12/29 00:15:21;;;;;;;128.37;38.37;;;;;;;6.31;100.00;94065.66;5091730;28;20203;-76
2021/12/29 00:17:57;;;;;;;91.90;38.97;;;;;;;6.22;100.00;94053.97;5093938;28;20554;-85
2021/12/29 00:20:29;;;;;;;118.33;41.27;;;;;;;6.30;100.00;94058.91;5088630;28;20723;-75
2021/12/29 00:23:01;;;;;;;195.53;40.53;;;;;;;6.25;100.00;94051.78;5084195;28;20208;-75
2021/12/29 00:25:29;;;;;;;135.73;38.57;;;;;;;6.18;100.00;94052.78;5081075;28;20198;-78
2021/12/29 00:27:59;;;;;;;162.57;38.60;;;;;;;6.21;100.00;94049.81;5089250;28;20316;-77
2021/12/29 00:30:31;;;;;;;76.37;34.80;;;;;;;6.22;100.00;94064.31;5083885;28;20276;-77
2021/12/29 00:33:01;;;;;;;90.97;36.10;;;;;;;6.25;100.00;94066.47;5087656;28;20251;-78
2021/12/29 00:35:30;;;;;;;84.47;36.20;;;;;;;6.19;100.00;94064.72;5088062;28;20200;-77
2021/12/29 00:38:02;;;;;;;91.27;38.23;;;;;;;6.06;100.00;94049.31;5088172;28;20208;-77
2021/12/29 00:40:30;;;;;;;120.67;37.43;;;;;;;6.18;100.00;94063.91;5088379;28;20260;-76
2021/12/29 00:42:58;;;;;;;109.77;37.90;;;;;;;5.97;100.00;94055.69;5078016;28;20281;-76
2021/12/29 00:45:26;;;;;;;89.57;39.57;;;;;;;5.55;100.00;94056.94;5088377;28;20280;-76
2021/12/29 00:47:54;;;;;;;101.87;45.63;;;;;;;5.30;100.00;94056.81;5085760;28;20204;-76
2021/12/29 00:50:24;;;;;;;114.30;49.10;;;;;;;5.36;100.00;94060.38;5085416;28;20205;-76
2021/12/29 00:52:53;;;;;;;131.83;50.13;;;;;;;5.48;100.00;94059.53;5085198;28;20657;-76
2021/12/29 00:55:21;;;;;;;121.10;50.67;;;;;;;5.59;100.00;94058.16;5086044;28;20213;-76
2021/12/29 00:57:51;;;;;;;139.87;53.97;;;;;;;5.70;100.00;94062.69;5091827;28;20229;-76
2021/12/29 01:00:21;;;;;;;127.53;51.13;;;;;;;5.77;100.00;94044.63;5092321;28;20201;-76
2021/12/29 01:02:53;;;;;;;133.80;54.43;;;;;;;5.85;100.00;94045.22;5093507;28;20244;-75
2021/12/29 01:05:23;;;;;;;124.47;53.23;;;;;;;5.90;100.00;94047.97;5092324;28;20566;-76
2021/12/29 01:07:52;;;;;;;123.37;51.57;;;;;;;5.74;100.00;94046.59;5092093;28;20219;-76
2021/12/29 01:10:20;;;;;;;105.63;46.33;;;;;;;5.60;100.00;94034.75;5091832;28;20205;-77
2021/12/29 01:12:54;;;;;;;86.90;40.33;;;;;;;5.54;100.00;94053.59;5091692;28;20226;-76
2021/12/29 01:15:28;;;;;;;87.07;38.57;;;;;;;5.61;100.00;94049.22;5093835;28;20205;-76
2021/12/29 01:17:57;;;;;;;85.80;36.77;;;;;;;5.53;100.00;94033.97;5094731;28;20209;-76
2021/12/29 01:20:28;;;;;;;71.90;36.87;;;;;;;5.51;100.00;94038.53;5091813;28;20654;-76
2021/12/29 01:22:57;;;;;;;77.33;37.40;;;;;;;5.49;100.00;94024.25;5091980;28;20696;-76
2021/12/29 01:25:25;;;;;;;82.13;37.43;;;;;;;5.55;100.00;94036.34;5091953;28;20265;-75
2021/12/29 01:27:54;;;;;;;74.90;35.67;;;;;;;5.48;100.00;94033.78;5091806;28;20301;-76
2021/12/29 01:30:22;;;;;;;69.77;35.03;;;;;;;5.45;100.00;94029.06;5087600;28;20289;-75
2021/12/29 01:32:51;;;;;;;68.73;35.07;;;;;;;5.50;100.00;94031.81;5085638;28;20222;-75
2021/12/29 01:35:21;;;;;;;68.17;35.13;;;;;;;5.53;100.00;94015.16;5079081;28;20207;-75
2021/12/29 01:37:50;;;;;;;71.47;35.37;;;;;;;5.61;100.00;94020.06;5072344;28;20658;-76
2021/12/29 01:40:21;;;;;;;71.23;35.40;;;;;;;5.69;100.00;94019.84;5072283;28;20213;-75
2021/12/29 01:42:49;;;;;;;69.40;35.10;;;;;;;5.72;100.00;94022.81;5077923;28;20201;-76
2021/12/29 01:45:16;;;;;;;75.60;36.90;;;;;;;5.82;100.00;94019.00;5092588;28;20245;-76
2021/12/29 01:47:45;;;;;;;74.57;36.57;;;;;;;5.90;100.00;94024.75;5092424;28;20616;-79
2021/12/29 01:50:14;;;;;;;74.20;36.20;;;;;;;5.93;100.00;94013.25;5085542;28;20214;-77
2021/12/29 01:52:50;;;;;;;84.10;38.70;;;;;;;5.97;100.00;94004.13;5091706;28;20708;-78
2021/12/29 01:55:21;;;;;;;80.90;39.53;;;;;;;5.99;100.00;94004.69;5084635;28;20199;-78
2021/12/29 01:57:49;;;;;;;84.90;40.93;;;;;;;6.01;100.00;93997.53;5085445;28;20568;-78
2021/12/29 02:00:21;;;;;;;103.17;47.17;;;;;;;5.97;100.00;94002.34;5079317;28;20230;-78
2021/12/29 02:02:50;;;;;;;99.53;46.80;;;;;;;6.00;100.00;93991.56;5092593;28;20200;-78
2021/12/29 02:05:18;;;;;;;96.97;47.20;;;;;;;6.04;100.00;93989.38;5076999;28;20207;-77
2021/12/29 02:07:47;;;;;;;101.87;47.83;;;;;;;6.09;100.00;93980.03;5071558;28;20333;-75
2021/12/29 02:10:18;;;;;;;136.03;57.60;;;;;;;6.04;100.00;93976.50;5071503;28;20572;-75
2021/12/29 02:12:49;;;;;;;122.13;55.40;;;;;;;6.10;100.00;93975.66;5071800;28;20232;-75
2021/12/29 02:15:18;;;;;;;108.07;49.97;;;;;;;5.84;100.00;93966.25;5074418;28;20243;-75
2021/12/29 02:17:49;;;;;;;108.77;50.57;;;;;;;5.56;100.00;93950.31;5078992;28;20214;-75
2021/12/29 02:20:20;;;;;;;89.47;44.10;;;;;;;5.31;100.00;93950.19;5071736;28;20206;-75
2021/12/29 02:22:54;;;;;;;97.37;45.33;;;;;;;5.36;100.00;93944.44;5071674;28;20206;-75
2021/12/29 02:25:34;;;;;;;97.63;45.50;;;;;;;5.42;100.00;93946.22;5072242;28;20267;-75
2021/12/29 02:28:05;;;;;;;88.87;42.47;;;;;;;5.52;100.00;93943.97;5072265;28;20291;-76
2021/12/29 02:30:34;;;;;;;87.30;41.27;;;;;;;5.61;100.00;93947.91;5078094;28;20228;-76
2021/12/29 02:33:05;;;;;;;88.43;43.20;;;;;;;5.74;100.00;93946.06;5071082;28;20356;-76
2021/12/29 02:35:35;;;;;;;94.23;45.97;;;;;;;5.77;100.00;93944.09;5071639;28;20221;-76
2021/12/29 02:38:09;;;;;;;103.93;49.87;;;;;;;5.85;100.00;93951.56;5071399;28;20206;-76
2021/12/29 02:40:38;;;;;;;121.23;53.77;;;;;;;5.88;100.00;93944.25;5071872;28;20231;-75
2021/12/29 02:43:07;;;;;;;125.47;55.23;;;;;;;5.96;100.00;93956.91;5070886;28;20215;-76
2021/12/29 02:45:35;;;;;;;120.57;51.00;;;;;;;5.99;100.00;93956.50;5075079;28;20205;-75
2021/12/29 02:48:04;;;;;;;117.83;51.60;;;;;;;6.03;100.00;93954.28;5071346;28;20214;-74
2021/12/29 02:50:32;;;;;;;105.23;46.33;;;;;;;6.10;100.00;93947.28;5071616;28;20208;-74
2021/12/29 02:53:02;;;;;;;99.73;43.87;;;;;;;6.11;100.00;93941.16;5071574;28;20224;-76
2021/12/29 02:55:30;;;;;;;102.03;45.27;;;;;;;6.13;100.00;93944.31;5079755;28;20198;-76
2021/12/29 02:57:59;;;;;;;113.30;50.43;;;;;;;6.20;100.00;93937.31;5082052;28;20235;-75
2021/12/29 03:00:27;;;;;;;103.73;48.03;;;;;;;6.22;100.00;93943.84;5071176;28;20229;-76
2021/12/29 03:02:56;;;;;;;84.60;38.90;;;;;;;6.25;100.00;93937.47;5080456;28;20198;-75
2021/12/29 03:05:26;;;;;;;75.27;36.30;;;;;;;6.31;100.00;93944.38;5089990;28;20230;-74
2021/12/29 03:07:55;;;;;;;78.57;40.70;;;;;;;6.21;100.00;93950.00;5089338;28;20752;-76
2021/12/29 03:10:25;;;;;;;84.37;40.67;;;;;;;6.15;100.00;93944.88;5090424;28;20680;-75
2021/12/29 03:12:54;;;;;;;83.90;40.97;;;;;;;6.13;100.00;93941.72;5090651;28;20274;-76
2021/12/29 03:15:23;;;;;;;76.13;37.60;;;;;;;6.16;100.00;93939.53;5085328;28;20215;-76
2021/12/29 03:17:51;;;;;;;68.63;35.27;;;;;;;6.21;100.00;93944.84;5077135;28;20195;-76
2021/12/29 03:20:19;;;;;;;64.70;32.63;;;;;;;5.93;100.00;93943.63;5070582;28;20209;-75
2021/12/29 03:22:48;;;;;;;65.33;33.80;;;;;;;5.87;100.00;93928.97;5070829;28;20198;-76
2021/12/29 03:25:16;;;;;;;80.47;39.57;;;;;;;5.91;100.00;93922.44;5081904;28;20218;-75
2021/12/29 03:27:46;;;;;;;70.23;36.43;;;;;;;5.98;100.00;93916.22;5090383;28;20302;-75
2021/12/29 03:30:15;;;;;;;73.43;36.97;;;;;;;6.01;100.00;93918.38;5090198;28;20666;-75
2021/12/29 03:32:50;;;;;;;73.90;36.33;;;;;;;6.03;100.00;93918.97;5090261;28;20223;-75
2021/12/29 03:35:18;;;;;;;78.00;38.10;;;;;;;6.15;100.00;93924.25;5078824;28;20211;-75
2021/12/29 03:37:46;;;;;;;83.20;39.00;;;;;;;6.20;100.00;93920.03;5071489;28;20223;-75
2021/12/29 03:40:15;;;;;;;77.87;38.27;;;;;;;6.24;100.00;93912.69;5070998;28;20768;-75
2021/12/29 03:42:45;;;;;;;77.87;38.10;;;;;;;6.26;100.00;93921.00;5070912;28;20686;-75
2021/12/29 03:45:14;;;;;;;84.83;40.57;;;;;;;6.27;100.00;93910.47;5090047;28;20207;-76
2021/12/29 03:47:43;;;;;;;79.93;36.70;;;;;;;6.33;100.00;93915.78;5071673;28;20781;-75
2021/12/29 03:50:12;;;;;;;75.20;39.47;;;;;;;6.31;100.00;93910.06;5071012;28;20204;-75
2021/12/29 03:52:40;;;;;;;74.87;38.93;;;;;;;6.15;100.00;93901.03;5076276;28;20222;-75
2021/12/29 03:55:09;;;;;;;75.83;39.53;;;;;;;5.79;100.00;93909.38;5083144;28;20675;-75
2021/12/29 03:57:37;;;;;;;79.30;39.13;;;;;;;5.48;100.00;93904.19;5069973;28;20203;-75
2021/12/29 04:00:12;;;;;;;75.60;39.90;;;;;;;5.52;100.00;93892.44;5070891;28;20208;-76
2021/12/29 04:02:40;;;;;;;73.83;38.23;;;;;;;5.57;100.00;93888.25;5069244;28;20197;-76
2021/12/29 04:05:14;;;;;;;72.63;38.73;;;;;;;5.74;100.00;93897.09;5072672;28;20613;-76
2021/12/29 04:07:43;;;;;;;69.50;37.97;;;;;;;5.85;100.00;93890.53;5069791;28;20724;-76
2021/12/29 04:10:13;;;;;;;73.57;36.60;;;;;;;5.97;100.00;93898.41;5069466;28;20215;-76
2021/12/29 04:12:42;;;;;;;61.73;35.07;;;;;;;6.03;100.00;93895.75;5070423;28;20651;-76
2021/12/29 04:15:14;;;;;;;65.93;36.00;;;;;;;6.16;100.00;93902.63;5069802;28;20204;-75
2021/12/29 04:17:44;;;;;;;71.07;36.53;;;;;;;6.22;100.00;93902.59;5077625;28;20250;-76
2021/12/29 04:22:59;;;;;;;68.73;36.57;;;;;;;6.27;100.00;93895.00;5089765;28;21077;-75
2021/12/29 04:25:34;;;;;;;70.33;37.03;;;;;;;6.34;100.00;93899.31;5089735;28;20690;-76
2021/12/29 04:28:03;;;;;;;65.97;35.30;;;;;;;6.41;100.00;93902.63;5089589;28;20250;-75
2021/12/29 04:30:33;;;;;;;68.13;36.13;;;;;;;6.32;100.00;93896.94;5089391;28;20203;-75
2021/12/29 04:33:02;;;;;;;74.77;37.97;;;;;;;6.36;100.00;93903.25;5089403;28;20229;-75
2021/12/29 04:35:30;;;;;;;79.70;38.90;;;;;;;6.31;100.00;93894.56;5088862;28;21036;-75
2021/12/29 04:37:58;;;;;;;77.00;42.17;;;;;;;6.31;100.00;93910.84;5090233;28;20632;-76
2021/12/29 04:40:26;;;;;;;91.93;45.37;;;;;;;6.35;100.00;93904.25;5089515;28;20207;-75
2021/12/29 04:42:55;;;;;;;120.73;55.17;;;;;;;6.24;100.00;93892.03;5089223;28;20688;-75
2021/12/29 04:45:24;;;;;;;117.17;55.57;;;;;;;6.26;100.00;93911.47;5089757;28;20192;-76
2021/12/29 04:47:54;;;;;;;132.23;60.03;;;;;;;6.33;100.00;93919.16;5069105;28;20205;-74
2021/12/29 04:50:28;;;;;;;126.27;59.13;;;;;;;6.32;100.00;93909.81;5084280;28;20814;-76
2021/12/29 04:52:59;;;;;;;114.07;53.10;;;;;;;6.28;100.00;93917.22;5088637;28;20230;-76
2021/12/29 04:55:29;;;;;;;103.50;50.60;;;;;;;6.39;100.00;93920.09;5088534;28;20207;-76
2021/12/29 04:57:59;;;;;;;99.27;50.33;;;;;;;6.43;100.00;93921.28;5088628;28;20211;-75
2021/12/29 05:00:30;;;;;;;89.80;47.93;;;;;;;6.45;100.00;93914.91;5089399;28;20212;-75
2021/12/29 05:03:01;;;;;;;97.57;50.00;;;;;;;6.50;100.00;93917.63;5089131;28;20196;-75
2021/12/29 05:05:51;;;;;;;101.57;50.67;;;;;;;6.53;100.00;93919.78;5071566;28;20208;-76
2021/12/29 05:08:28;;;;;;;102.30;51.50;;;;;;;6.55;100.00;93917.03;5075826;28;20283;-76
2021/12/29 05:11:00;;;;;;;103.43;51.17;;;;;;;6.51;100.00;93913.28;5077282;28;20286;-76
2021/12/29 05:13:30;;;;;;;102.83;52.77;;;;;;;6.58;100.00;93921.75;5088550;28;20959;-76
2021/12/29 05:15:59;;;;;;;100.60;52.23;;;;;;;6.64;100.00;93923.47;5090342;28;20218;-76
2021/12/29 05:18:30;;;;;;;87.63;47.40;;;;;;;6.59;100.00;93928.47;5069105;28;20207;-76
2021/12/29 05:20:59;;;;;;;87.27;46.37;;;;;;;6.61;100.00;93935.00;5069054;28;20290;-76
2021/12/29 05:23:28;;;;;;;96.53;48.23;;;;;;;6.46;100.00;93931.19;5068214;28;20254;-76
2021/12/29 05:25:57;;;;;;;95.60;48.70;;;;;;;6.14;100.00;93922.69;5068998;28;20203;-76
2021/12/29 05:28:25;;;;;;;112.73;60.57;;;;;;;5.91;100.00;93932.75;5078751;28;20246;-76
2021/12/29 05:30:54;;;;;;;120.60;65.63;;;;;;;5.89;100.00;93927.78;5089124;28;20212;-76
2021/12/29 05:33:24;;;;;;;128.60;70.63;;;;;;;6.03;100.00;93920.78;5088882;28;20668;-77
2021/12/29 05:35:55;;;;;;;123.27;67.10;;;;;;;6.15;100.00;93912.13;5082636;28;20212;-76
2021/12/29 05:38:23;;;;;;;113.67;60.53;;;;;;;6.23;100.00;93921.44;5089127;28;20696;-79
2021/12/29 05:40:52;;;;;;;108.67;59.03;;;;;;;6.39;100.00;93926.06;5090859;28;20239;-79
2021/12/29 05:43:20;;;;;;;107.70;57.90;;;;;;;6.52;100.00;93925.94;5092416;28;20359;-76
2021/12/29 05:45:51;;;;;;;109.53;58.77;;;;;;;6.60;100.00;93932.66;5088514;28;20650;-76
2021/12/29 05:48:19;;;;;;;98.00;55.37;;;;;;;6.63;100.00;93921.91;5072697;28;20200;-76
2021/12/29 05:50:48;;;;;;;97.87;52.23;;;;;;;6.65;100.00;93925.06;5073445;28;20291;-76
2021/12/29 05:53:18;;;;;;;104.03;55.57;;;;;;;6.63;100.00;93930.44;5072328;28;20294;-78
2021/12/29 05:55:46;;;;;;;108.83;56.07;;;;;;;6.69;100.00;93928.81;5072247;28;20218;-77
2021/12/29 05:58:15;;;;;;;105.37;55.30;;;;;;;6.73;100.00;93923.00;5090528;28;20215;-77
2021/12/29 06:00:44;;;;;;;102.60;53.97;;;;;;;6.75;100.00;93933.91;5080412;28;20258;-76
2021/12/29 06:03:13;;;;;;;94.17;52.07;;;;;;;6.71;100.00;93931.97;5072646;28;20243;-76
2021/12/29 06:05:41;;;;;;;95.67;52.27;;;;;;;6.78;100.00;93930.13;5072208;28;20200;-75
2021/12/29 06:08:09;;;;;;;92.97;50.37;;;;;;;6.84;100.00;93922.31;5071669;28;20916;-75
2021/12/29 06:10:39;;;;;;;79.40;42.83;;;;;;;6.94;100.00;93929.56;5072528;28;20238;-77
2021/12/29 06:13:06;;;;;;;81.13;42.97;;;;;;;6.94;100.00;93929.56;5072591;28;20224;-77
2021/12/29 06:15:34;;;;;;;68.53;37.97;;;;;;;6.92;100.00;93931.59;5081527;28;20211;-76
2021/12/29 06:18:03;;;;;;;64.37;35.77;;;;;;;6.92;100.00;93926.41;5079277;28;20211;-76
2021/12/29 06:20:38;;;;;;;61.20;35.97;;;;;;;6.88;100.00;93943.31;5091230;28;20196;-75
2021/12/29 06:23:06;;;;;;;65.07;35.37;;;;;;;6.90;100.00;93937.97;5071938;28;20201;-75
2021/12/29 06:25:35;;;;;;;64.33;37.17;;;;;;;6.92;100.00;93949.66;5072047;28;20207;-75
2021/12/29 06:28:06;;;;;;;66.17;37.30;;;;;;;6.95;100.00;93944.06;5071225;28;20648;-74
2021/12/29 06:30:36;;;;;;;65.23;35.90;;;;;;;6.96;100.00;93947.41;5071929;28;20226;-74
2021/12/29 06:33:06;;;;;;;67.40;37.20;;;;;;;6.96;100.00;93955.16;5071297;28;20540;-74
2021/12/29 06:35:35;;;;;;;68.07;37.33;;;;;;;6.96;100.00;93958.53;5071669;28;20248;-75
2021/12/29 06:38:04;;;;;;;71.50;40.00;;;;;;;6.99;100.00;93962.50;5071567;28;20271;-76
2021/12/29 06:40:33;;;;;;;76.50;41.03;;;;;;;6.98;100.00;93948.03;5071446;28;20632;-76
2021/12/29 06:43:03;;;;;;;82.03;44.10;;;;;;;7.10;100.00;93965.16;5085485;28;20322;-76
2021/12/29 06:45:32;;;;;;;74.30;42.40;;;;;;;7.13;100.00;93961.38;5079131;28;20616;-77
2021/12/29 06:48:00;;;;;;;75.60;42.13;;;;;;;7.13;100.00;93964.75;5075621;28;20706;-75
2021/12/29 06:50:33;;;;;;;78.83;44.43;;;;;;;7.13;100.00;93963.97;5086856;28;20245;-76
2021/12/29 06:53:01;;;;;;;84.27;44.37;;;;;;;7.19;100.00;93966.47;5090116;28;20203;-75
2021/12/29 06:55:31;;;;;;;85.07;48.13;;;;;;;7.20;100.00;93970.66;5089902;28;20251;-76
2021/12/29 06:57:59;;;;;;;128.33;72.20;;;;;;;6.93;100.00;93965.91;5090031;28;20212;-75
2021/12/29 07:00:28;;;;;;;182.10;98.13;;;;;;;6.64;100.00;93972.53;5081733;28;20212;-75
2021/12/29 07:02:58;;;;;;;215.93;113.80;;;;;;;6.42;100.00;93966.94;5070984;28;20227;-75
2021/12/29 07:05:26;;;;;;;195.50;97.77;;;;;;;6.51;100.00;93970.84;5074833;28;20732;-75
2021/12/29 07:07:54;;;;;;;181.63;91.33;;;;;;;6.67;100.00;93972.09;5090155;28;20763;-75
2021/12/29 07:10:23;;;;;;;191.47;95.70;;;;;;;6.80;100.00;93977.19;5086676;28;20248;-75
2021/12/29 07:12:51;;;;;;;172.17;82.47;;;;;;;6.94;100.00;93972.69;5081871;28;20222;-75
2021/12/29 07:15:20;;;;;;;165.50;75.57;;;;;;;7.04;100.00;93973.00;5088335;28;20310;-76
2021/12/29 07:17:48;;;;;;;138.77;60.80;;;;;;;7.11;100.00;93978.88;5088265;28;20663;-75
2021/12/29 07:20:17;;;;;;;121.80;55.63;;;;;;;7.17;100.00;93978.03;5085773;28;20215;-75
2021/12/29 07:22:46;;;;;;;106.43;49.40;;;;;;;7.28;100.00;93983.28;5088509;28;20208;-76
2021/12/29 07:25:13;;;;;;;93.73;44.73;;;;;;;7.28;100.00;93979.91;5085131;28;20263;-74
2021/12/29 07:27:42;;;;;;;92.47;43.57;;;;;;;7.32;100.00;93979.28;5070419;28;20197;-73
2021/12/29 07:30:11;;;;;;;82.93;41.47;;;;;;;7.39;100.00;93982.56;5070356;28;20236;-72
2021/12/29 07:32:40;;;;;;;77.00;40.77;;;;;;;7.39;100.00;93979.19;5070772;28;20307;-73
2021/12/29 07:35:11;;;;;;;78.47;40.00;;;;;;;7.41;100.00;93983.16;5064642;28;20252;-73
2021/12/29 07:37:41;;;;;;;76.07;41.07;;;;;;;7.25;100.00;93986.28;5078271;28;20209;-73
2021/12/29 07:40:10;;;;;;;82.93;42.67;;;;;;;7.27;100.00;93983.50;5102569;28;20203;-72
2021/12/29 07:42:41;;;;;;;78.23;41.43;;;;;;;7.27;100.00;93979.09;5088965;28;20977;-72
2021/12/29 07:45:11;;;;;;;83.67;41.00;;;;;;;7.32;100.00;93983.66;5093641;28;20210;-73
2021/12/29 07:47:43;;;;;;;79.03;42.50;;;;;;;7.35;100.00;93985.81;5086648;28;20232;-74
2021/12/29 07:50:12;;;;;;;83.87;42.63;;;;;;;7.33;100.00;93983.44;5081948;28;20200;-74
2021/12/29 07:52:41;;;;;;;100.10;50.50;;;;;;;7.31;100.00;93984.66;5077875;28;20644;-74
2021/12/29 07:55:10;;;;;;;102.90;50.17;;;;;;;7.33;100.00;93974.91;5080312;28;20235;-72
2021/12/29 07:57:38;;;;;;;118.30;55.97;;;;;;;7.31;100.00;93987.22;5082935;28;20882;-73
2021/12/29 08:00:06;;;;;;;117.80;58.03;;;;;;;7.32;100.00;93981.06;5088530;28;20209;-72
2021/12/29 08:02:35;;;;;;;117.23;58.77;;;;;;;7.31;100.00;93982.84;5081067;28;20203;-73
2021/12/29 08:05:05;;;;;;;125.93;60.13;;;;;;;7.36;100.00;93983.00;5078586;28;20260;-74
2021/12/29 08:07:34;;;;;;;131.30;59.67;;;;;;;7.41;100.00;93979.78;5087579;28;20207;-73
2021/12/29 08:10:04;;;;;;;123.60;60.57;;;;;;;7.40;100.00;93970.44;5078402;28;20205;-73
2021/12/29 08:12:32;;;;;;;120.27;61.90;;;;;;;7.51;100.00;93979.25;5082443;28;20200;-73
2021/12/29 08:15:00;;;;;;;124.40;62.57;;;;;;;7.44;100.00;93979.34;5078776;28;20231;-73
2021/12/29 08:17:32;;;;;;;120.90;60.33;;;;;;;7.41;100.00;93980.59;5080433;28;20527;-74
2021/12/29 08:19:59;;;;;;;114.10;57.20;;;;;;;7.44;100.00;93979.34;5079788;28;20244;-74
2021/12/29 08:22:29;;;;;;;113.83;56.17;;;;;;;7.33;100.00;93973.09;5088330;28;20206;-74
2021/12/29 08:24:57;;;;;;;124.83;59.77;;;;;;;7.50;100.00;93975.91;5074981;28;20203;-75
2021/12/29 08:27:28;;;;;;;129.23;61.80;;;;;;;7.49;100.00;93978.69;5083378;28;20232;-79
2021/12/29 08:29:56;;;;;;;125.33;61.03;;;;;;;7.20;100.00;93977.59;5094845;28;20197;-84
2021/12/29 08:32:23;;;;;;;115.77;57.10;;;;;;;6.77;100.00;93978.38;5089308;28;20223;-79
2021/12/29 08:34:52;;;;;;;121.83;59.10;;;;;;;6.77;100.00;93973.22;5092346;28;20219;-79
2021/12/29 08:37:19;;;;;;;126.37;61.50;;;;;;;6.83;100.00;93969.81;5094267;28;20219;-78
2021/12/29 08:39:47;;;;;;;135.80;69.33;;;;;;;6.98;100.00;93976.44;5100158;28;20669;-78
2021/12/29 08:42:20;;;;;;;132.63;67.20;;;;;;;7.06;100.00;93978.72;5094345;28;20203;-77
2021/12/29 08:44:49;;;;;;;147.90;72.70;;;;;;;7.17;100.00;93972.84;5105138;28;20223;-78
2021/12/29 08:47:17;;;;;;;136.90;67.43;;;;;;;7.11;100.00;93958.22;5094333;28;20201;-77
2021/12/29 08:49:45;;;;;;;130.00;61.40;;;;;;;7.26;100.00;93974.16;5089858;28;20257;-78
2021/12/29 08:52:13;;;;;;;112.50;56.43;;;;;;;7.33;100.00;93975.66;5089911;28;20312;-78
2021/12/29 08:54:40;;;;;;;119.70;57.67;;;;;;;7.40;100.00;93970.44;5092881;28;20647;-78
2021/12/29 08:57:07;;;;;;;120.27;59.93;;;;;;;7.50;100.00;93964.78;5096844;28;20195;-78
2021/12/29 08:59:36;;;;;;;187.43;92.43;;;;;;;7.55;100.00;93965.72;5091599;28;20205;-77
2021/12/29 09:02:09;;;;;;;300.23;141.37;;;;;;;7.54;100.00;93971.06;5094390;28;20309;-79
2021/12/29 09:04:42;;;;;;;312.07;154.47;;;;;;;7.35;100.00;93970.31;5087645;28;20580;-77
2021/12/29 09:07:13;;;;;;;326.67;165.93;;;;;;;7.13;100.00;93966.56;5093283;28;20199;-77
2021/12/29 09:09:41;;;;;;;298.67;153.33;;;;;;;7.06;100.00;93951.13;5095152;28;20196;-77
2021/12/29 09:12:14;;;;;;;303.03;153.97;;;;;;;7.20;100.00;93956.94;5090837;28;20207;-78
2021/12/29 09:14:45;;;;;;;243.03;121.93;;;;;;;7.29;100.00;93951.28;5091409;28;20223;-79
2021/12/29 09:17:17;;;;;;;202.47;103.37;;;;;;;7.21;100.00;93922.34;5091517;28;20227;-76
2021/12/29 09:19:47;;;;;;;161.97;84.47;;;;;;;6.98;100.00;93868.75;5087618;28;20900;-80
2021/12/29 09:22:18;;;;;;;194.67;96.77;;;;;;;7.55;100.00;93941.66;5091679;28;20204;-77
2021/12/29 09:24:47;;;;;;;190.43;95.43;;;;;;;7.63;100.00;93933.59;5092635;28;20196;-78
2021/12/29 09:27:18;;;;;;;175.43;90.43;;;;;;;7.71;100.00;93934.09;5092781;28;20204;-75
2021/12/29 09:30:02;;;;;;;188.20;97.27;;;;;;;7.82;100.00;93928.16;5086294;28;20244;-77
2021/12/29 09:32:39;;;;;;;194.13;98.30;;;;;;;7.86;100.00;93920.75;5089779;28;20193;-78
2021/12/29 09:35:47;;;;;;;;;;;;;;;;;;;;;
2021/12/29 09:38:17;;;;;;;179.73;90.80;;;;;;;8.00;100.00;93917.78;5091019;28;20211;-78
2021/12/29 09:40:47;;;;;;;167.97;87.53;;;;;;;8.05;100.00;93918.94;5090324;28;20279;-77
2021/12/29 09:43:16;;;;;;;175.80;90.57;;;;;;;8.09;100.00;93925.22;5094852;28;20854;-77
2021/12/29 09:45:46;;;;;;;147.83;77.43;;;;;;;8.17;100.00;93923.13;5092827;28;20189;-78
2021/12/29 09:48:20;;;;;;;171.17;80.23;;;;;;;8.05;100.00;93898.25;5096078;28;20663;-85
2021/12/29 09:50:58;;;;;;;137.37;64.30;;;;;;;7.75;100.00;93882.72;5095468;28;20296;-78
2021/12/29 09:53:34;;;;;;;117.83;53.97;;;;;;;7.60;100.00;93903.78;5093725;28;20203;-77
2021/12/29 09:56:03;;;;;;;110.73;55.13;;;;;;;7.63;100.00;93908.53;5092459;28;20250;-75
2021/12/29 09:58:34;;;;;;;111.37;53.67;;;;;;;7.42;100.00;93860.66;5091027;28;20205;-76
2021/12/29 10:01:10;;;;;;;116.17;56.07;;;;;;;7.66;100.00;93871.91;5100003;28;20299;-77
2021/12/29 10:03:57;;;;;;;104.77;53.03;;;;;;;8.00;100.00;93896.28;5093674;28;20197;-79
2021/12/29 10:06:33;;;;;;;99.53;50.70;;;;;;;7.97;100.00;93873.44;5094065;28;20676;-76
2021/12/29 10:09:14;;;;;;;91.63;46.93;;;;;;;8.04;100.00;93852.66;5096601;28;20196;-77
2021/12/29 10:11:44;;;;;;;86.83;46.53;;;;;;;8.37;100.00;93894.38;5087196;28;20192;-76
2021/12/29 10:14:24;;;;;;;92.80;49.17;;;;;;;8.45;100.00;93889.69;5095954;28;20212;-79
2021/12/29 10:16:57;;;;;;;95.37;49.27;;;;;;;8.26;100.00;93851.91;5099301;28;20210;-78
2021/12/29 10:19:38;;;;;;;97.87;49.67;;;;;;;8.41;100.00;93880.00;5091418;28;20197;-72
2021/12/29 10:22:08;;;;;;;94.33;46.03;;;;;;;8.60;100.00;93888.47;5095616;28;20208;-75
2021/12/29 10:24:37;;;;;;;83.30;44.03;;;;;;;8.67;100.00;93895.09;5086473;28;20258;-72
2021/12/29 10:27:06;;;;;;;78.97;42.67;;;;;;;8.70;100.00;93888.69;5103573;28;20200;-71
2021/12/29 10:29:34;;;;;;;86.67;43.00;;;;;;;8.66;100.00;93877.97;5101811;28;20751;-79
2021/12/29 10:32:03;;;;;;;84.43;43.27;;;;;;;8.59;100.00;93877.31;5094177;28;20189;-73
2021/12/29 10:34:35;;;;;;;82.57;43.03;;;;;;;8.55;100.00;93878.75;5085867;28;20690;-74
2021/12/29 10:37:07;;;;;;;84.33;43.17;;;;;;;8.57;100.00;93875.97;5095728;28;20222;-78
2021/12/29 10:39:38;;;;;;;82.03;43.27;;;;;;;8.65;100.00;93871.25;5090293;28;20220;-73
2021/12/29 10:42:09;;;;;;;90.37;44.13;;;;;;;8.66;100.00;93872.03;5090252;28;20659;-74
2021/12/29 10:44:39;;;;;;;94.93;47.37;;;;;;;8.68;100.00;93867.41;5090253;28;20567;-74
2021/12/29 10:47:15;;;;;;;94.40;48.37;;;;;;;8.77;100.00;93869.44;5089310;28;20208;-75
2021/12/29 10:49:53;;;;;;;97.00;48.60;;;;;;;8.75;100.00;93861.09;5088624;28;20231;-74
2021/12/29 10:52:33;;;;;;;109.93;53.27;;;;;;;8.79;100.00;93866.59;5089481;28;20223;-72
2021/12/29 10:55:01;;;;;;;110.33;56.07;;;;;;;8.78;100.00;93872.78;5088855;28;20243;-73
2021/12/29 10:57:29;;;;;;;117.33;57.20;;;;;;;8.81;100.00;93872.34;5089286;28;20204;-72
2021/12/29 10:59:58;;;;;;;115.07;55.60;;;;;;;8.84;100.00;93861.53;5088786;28;20703;-74
2021/12/29 11:02:30;;;;;;;114.90;55.93;;;;;;;8.80;100.00;93861.19;5089074;28;20197;-73
2021/12/29 11:05:03;;;;;;;118.67;55.13;;;;;;;8.83;100.00;93857.38;5093058;28;20264;-75
2021/12/29 11:07:32;;;;;;;111.80;55.27;;;;;;;8.93;100.00;93858.38;5090121;28;20287;-74
2021/12/29 11:10:09;;;;;;;121.40;56.33;;;;;;;8.97;100.00;93856.13;5089067;28;20201;-73
2021/12/29 11:12:46;;;;;;;115.33;57.03;;;;;;;8.93;100.00;93848.00;5090013;28;20622;-73
2021/12/29 11:15:22;;;;;;;107.90;54.03;;;;;;;8.93;100.00;93852.41;5095040;28;20314;-73
2021/12/29 11:17:50;;;;;;;114.67;54.77;;;;;;;8.68;100.00;93847.47;5090290;28;20201;-74
2021/12/29 11:20:21;;;;;;;118.13;55.73;;;;;;;8.42;100.00;93835.78;5088786;28;20220;-73
2021/12/29 11:22:50;;;;;;;126.70;57.80;;;;;;;8.16;100.00;93837.97;5092114;28;20212;-74
2021/12/29 11:25:28;;;;;;;122.50;58.33;;;;;;;8.17;100.00;93837.72;5083018;28;20196;-74
2021/12/29 11:27:55;;;;;;;122.50;58.90;;;;;;;8.28;100.00;93836.22;5087068;28;20641;-73
2021/12/29 11:30:23;;;;;;;130.83;60.13;;;;;;;8.38;100.00;93826.88;5088332;28;20204;-74